Main page


Airports :

Eleusina, Greece

latitude: 38-04N, longitude: 023-33E, elevation: 44 m

Current weather observation

The report was made 24 minutes ago, at 05:50 UTC
Wind 3 kt from variable directions
Temperature 14°C
Humidity 67%
Pressure 1007 hPa
Visibility 10 km or more
Few clouds at a height of 3000 ft

METAR: LGEL 200550Z VRB03KT 9999 FEW030 14/08 Q1007

Time: 08:14 (06:14 UTC)


The report was made 1 hour and 14 minutes ago, at 05:00 UTC
Forecast valid from 20 at 06 UTC to 21 at 06 UTC
Wind 13 kt from the West/Southwest
Visibility 10 km or more
Few clouds at a height of 3000 ft
from 20 at 14 UTC to 20 at 16 UTC
Wind 10 kt from the West/Northwest

TAF: LGEL 200500Z 2006/2106 24013KT 9999 FEW030 BECMG 2014/2016 30010KT

Weather observations and forecasts of more than 4000 airports (METAR and TAF reports).

The available stations are represented by yellow and red dots on the map.

Hover mouse over dot to see the name of the station.

Then click to see weather observations and forecasts.

To change the map : click on the green buttons with a black cross to zoom in, on the green button with a dash to zoom out, or on the green arrows for adjacent maps.